createdAt,value
2023-05-21T00:00:08.345Z,67.16
2023-05-21T00:02:39.488Z,66.92
2023-05-21T00:05:13.797Z,67.14
2023-05-21T00:07:41.449Z,67.15
2023-05-21T00:10:08.417Z,67.38
2023-05-21T00:12:35.210Z,67.35
2023-05-21T00:15:02.005Z,67.31
2023-05-21T00:17:28.844Z,68.10
2023-05-21T00:19:56.876Z,67.66
2023-05-21T00:22:25.087Z,67.43
2023-05-21T00:24:51.710Z,67.25
2023-05-21T00:27:18.481Z,67.18
2023-05-21T00:29:45.306Z,67.05
2023-05-21T00:32:12.118Z,66.97
2023-05-21T00:34:39.430Z,66.86
2023-05-21T00:37:06.250Z,66.97
2023-05-21T00:39:34.328Z,67.02
2023-05-21T00:42:01.124Z,66.70
2023-05-21T00:44:34.480Z,67.02
2023-05-21T00:47:02.251Z,66.85
2023-05-21T00:49:29.364Z,66.72
2023-05-21T00:51:56.488Z,66.55
2023-05-21T00:54:23.824Z,66.78
2023-05-21T00:56:52.094Z,66.98
2023-05-21T00:59:18.978Z,67.13
2023-05-21T01:01:45.913Z,67.07
2023-05-21T01:04:12.768Z,67.03
2023-05-21T01:06:39.435Z,66.93
2023-05-21T01:09:07.377Z,67.16
2023-05-21T01:11:38.861Z,67.16
2023-05-21T01:14:10.266Z,67.63
2023-05-21T01:16:37.881Z,67.51
2023-05-21T01:19:05.464Z,67.57
2023-05-21T01:21:36.125Z,67.81
2023-05-21T01:24:05.682Z,68.00
2023-05-21T01:26:33.778Z,68.27
2023-05-21T01:29:00.502Z,68.43
2023-05-21T01:31:31.316Z,68.46
2023-05-21T01:34:01.821Z,68.43
2023-05-21T01:36:32.866Z,68.33
2023-05-21T01:39:02.103Z,68.37
2023-05-21T01:41:33.330Z,68.64
2023-05-21T01:44:00.431Z,68.68
2023-05-21T01:46:29.032Z,68.96
2023-05-21T01:48:56.350Z,69.41
2023-05-21T01:51:24.036Z,69.81
2023-05-21T01:53:50.783Z,69.50
2023-05-21T01:56:17.494Z,69.66
2023-05-21T01:58:45.657Z,69.59
2023-05-21T02:01:12.761Z,69.54
2023-05-21T02:03:39.621Z,69.50
2023-05-21T02:06:06.351Z,69.76
2023-05-21T02:08:33.650Z,69.57
2023-05-21T02:11:00.461Z,69.30
2023-05-21T02:13:29.236Z,69.42
2023-05-21T02:15:57.400Z,69.40
2023-05-21T02:18:24.651Z,69.79
2023-05-21T02:20:51.484Z,69.74
2023-05-21T02:23:18.305Z,69.56
2023-05-21T02:25:48.141Z,69.89
2023-05-21T02:28:15.944Z,70.00
2023-05-21T02:30:42.607Z,69.81
2023-05-21T02:33:14.284Z,69.97
2023-05-21T02:35:41.744Z,70.04
2023-05-21T02:38:09.202Z,70.18
2023-05-21T02:40:36.030Z,70.18
2023-05-21T02:43:02.709Z,70.42
2023-05-21T02:45:31.456Z,70.36
2023-05-21T02:47:58.707Z,70.59
2023-05-21T02:50:26.915Z,70.50
2023-05-21T02:52:57.390Z,71.05
2023-05-21T02:55:24.140Z,71.25
2023-05-21T02:57:50.950Z,70.91
2023-05-21T03:00:17.857Z,71.28
2023-05-21T03:02:44.686Z,71.28
2023-05-21T03:05:11.483Z,70.94
2023-05-21T03:07:39.538Z,71.05
2023-05-21T03:10:06.640Z,71.48
2023-05-21T03:12:33.673Z,71.47
2023-05-21T03:15:00.904Z,71.40
2023-05-21T03:17:28.219Z,71.38
2023-05-21T03:19:55.155Z,71.91
2023-05-21T03:22:22.274Z,71.73
2023-05-21T03:24:50.374Z,71.74
2023-05-21T03:27:18.185Z,71.67
2023-05-21T03:29:46.040Z,71.75
2023-05-21T03:32:13.286Z,71.76
2023-05-21T03:34:40.391Z,71.82
2023-05-21T03:37:07.136Z,71.86
2023-05-21T03:39:34.201Z,72.02
2023-05-21T03:42:02.375Z,72.36
2023-05-21T03:44:39.505Z,72.14
2023-05-21T03:47:38.444Z,72.46
2023-05-21T03:50:09.342Z,72.47
2023-05-21T03:52:36.366Z,72.44
2023-05-21T03:55:03.268Z,72.43
2023-05-21T03:57:31.555Z,72.26
2023-05-21T03:59:59.126Z,72.57
2023-05-21T04:02:27.542Z,72.67
2023-05-21T04:04:56.078Z,72.97
2023-05-21T04:07:23.935Z,72.64
2023-05-21T04:09:50.643Z,72.22
2023-05-21T04:12:19.137Z,72.44
2023-05-21T04:14:47.345Z,72.75
2023-05-21T04:17:14.140Z,72.23
2023-05-21T04:19:41.031Z,72.32
2023-05-21T04:22:07.912Z,72.09
2023-05-21T04:24:34.648Z,71.75
2023-05-21T04:27:16.674Z,71.78
2023-05-21T04:29:44.018Z,71.50
2023-05-21T04:32:15.079Z,71.32
2023-05-21T04:34:42.053Z,71.27
2023-05-21T04:37:09.932Z,70.96
2023-05-21T04:39:36.676Z,70.63
2023-05-21T04:42:04.168Z,70.08
2023-05-21T04:44:30.938Z,69.78
2023-05-21T04:46:59.165Z,69.42
2023-05-21T04:49:27.353Z,69.28
2023-05-21T04:51:54.037Z,68.93
2023-05-21T04:54:20.730Z,68.41
2023-05-21T04:56:47.715Z,68.25
2023-05-21T04:59:15.381Z,67.71
2023-05-21T05:01:44.048Z,66.54
2023-05-21T05:04:10.881Z,65.04
2023-05-21T05:06:38.939Z,63.98
2023-05-21T05:09:05.685Z,62.70
2023-05-21T05:11:32.445Z,61.22
2023-05-21T05:13:59.153Z,60.78
2023-05-21T05:16:26.242Z,60.33
2023-05-21T05:18:55.985Z,58.43
2023-05-21T05:21:23.651Z,59.52
2023-05-21T05:23:52.174Z,59.54
2023-05-21T05:26:22.545Z,61.05
2023-05-21T05:28:49.572Z,60.55
2023-05-21T05:31:16.341Z,60.27
2023-05-21T05:33:44.013Z,60.71
2023-05-21T05:36:11.778Z,61.21
2023-05-21T05:38:38.677Z,61.69
2023-05-21T05:41:06.817Z,61.75
2023-05-21T05:43:34.680Z,62.14
2023-05-21T05:46:01.535Z,62.62
2023-05-21T05:48:28.608Z,62.56
2023-05-21T05:50:57.147Z,62.89
2023-05-21T05:53:25.453Z,63.29
2023-05-21T05:55:52.894Z,63.05
2023-05-21T05:58:20.999Z,63.29
2023-05-21T06:00:55.824Z,63.17
2023-05-21T06:03:24.386Z,62.98
2023-05-21T06:05:53.016Z,62.62
2023-05-21T06:08:20.148Z,62.35
2023-05-21T06:10:46.852Z,62.08
2023-05-21T06:13:14.722Z,61.67
2023-05-21T06:15:45.713Z,62.04
2023-05-21T06:18:12.518Z,61.23
2023-05-21T06:20:39.181Z,61.32
2023-05-21T06:23:07.551Z,60.51
2023-05-21T06:25:34.424Z,60.77
2023-05-21T06:28:01.341Z,61.10
2023-05-21T06:30:29.928Z,60.50
2023-05-21T06:32:58.560Z,60.69
2023-05-21T06:35:25.630Z,60.26
2023-05-21T06:37:52.562Z,59.72
2023-05-21T06:40:20.609Z,59.73
2023-05-21T06:42:47.792Z,59.14
2023-05-21T06:45:20.314Z,59.77
2023-05-21T06:47:47.160Z,59.63
2023-05-21T06:50:15.330Z,59.13
2023-05-21T06:52:42.101Z,58.45
2023-05-21T06:55:09.646Z,57.73
2023-05-21T06:57:58.371Z,57.45
2023-05-21T07:00:25.459Z,55.51
2023-05-21T07:02:52.294Z,55.12
2023-05-21T07:05:20.883Z,54.83
2023-05-21T07:07:47.596Z,54.93
2023-05-21T07:10:14.353Z,55.04
2023-05-21T07:12:41.963Z,55.66
2023-05-21T07:15:10.002Z,54.97
2023-05-21T07:17:37.516Z,56.06
2023-05-21T07:20:07.984Z,54.48
2023-05-21T07:22:38.265Z,53.31
2023-05-21T07:25:06.210Z,53.26
2023-05-21T07:27:33.513Z,53.11
2023-05-21T07:30:00.293Z,52.79
2023-05-21T07:32:29.171Z,53.11
2023-05-21T07:34:57.048Z,55.00
2023-05-21T07:37:27.817Z,53.25
2023-05-21T07:39:56.690Z,50.79
2023-05-21T07:42:23.397Z,51.26
2023-05-21T07:44:50.118Z,51.56
2023-05-21T07:47:17.077Z,52.33
2023-05-21T07:49:44.707Z,51.75
2023-05-21T07:52:11.450Z,51.84
2023-05-21T07:54:38.259Z,53.16
2023-05-21T07:57:06.731Z,53.43
2023-05-21T07:59:56.606Z,54.31
2023-05-21T08:02:24.000Z,52.40
2023-05-21T08:04:52.624Z,51.82
2023-05-21T08:07:20.250Z,50.27
2023-05-21T08:09:47.179Z,52.00
2023-05-21T08:12:16.112Z,52.93
2023-05-21T08:14:43.779Z,51.24
2023-05-21T08:17:12.076Z,51.55
2023-05-21T08:19:39.117Z,50.08
2023-05-21T08:22:09.169Z,49.83
2023-05-21T08:24:38.203Z,49.54
2023-05-21T08:27:05.570Z,51.74
2023-05-21T08:29:36.586Z,49.75
2023-05-21T08:32:06.009Z,48.76
2023-05-21T08:34:33.144Z,48.87
2023-05-21T08:37:18.618Z,48.93
2023-05-21T08:40:15.112Z,46.98
2023-05-21T08:42:44.606Z,48.74
2023-05-21T08:45:19.777Z,47.73
2023-05-21T08:47:49.406Z,49.31
2023-05-21T08:50:20.610Z,48.02
2023-05-21T08:52:47.904Z,46.48
2023-05-21T08:55:14.644Z,47.26
2023-05-21T08:57:43.520Z,48.06
2023-05-21T09:00:11.909Z,48.46
2023-05-21T09:02:44.450Z,48.75
2023-05-21T09:05:12.366Z,48.30
2023-05-21T09:07:43.016Z,46.28
2023-05-21T09:10:29.399Z,47.46
2023-05-21T09:12:56.280Z,46.57
2023-05-21T09:15:23.219Z,46.20
2023-05-21T09:17:51.718Z,47.79
2023-05-21T09:20:50.649Z,45.91
2023-05-21T09:23:18.131Z,47.27
2023-05-21T09:25:46.813Z,47.23
2023-05-21T09:28:19.218Z,47.61
2023-05-21T09:30:47.152Z,45.79
2023-05-21T09:33:24.484Z,46.37
2023-05-21T09:35:51.549Z,46.66
2023-05-21T09:38:18.322Z,47.69
2023-05-21T09:40:48.539Z,47.32
2023-05-21T09:43:21.583Z,47.01
2023-05-21T09:45:52.400Z,48.12
2023-05-21T09:48:34.629Z,47.74
2023-05-21T09:51:10.336Z,47.95
2023-05-21T09:53:37.409Z,47.90
2023-05-21T09:56:05.311Z,47.87
2023-05-21T09:58:32.431Z,46.59
2023-05-21T10:00:59.151Z,46.19
2023-05-21T10:03:28.431Z,47.06
2023-05-21T10:05:58.120Z,46.47
2023-05-21T10:08:27.430Z,47.34
2023-05-21T10:10:54.127Z,46.87
2023-05-21T10:13:22.095Z,47.90
2023-05-21T10:15:53.206Z,48.46
2023-05-21T10:18:25.261Z,49.55
2023-05-21T10:20:52.272Z,48.71
2023-05-21T10:23:20.810Z,47.53
2023-05-21T10:25:47.844Z,47.47
2023-05-21T10:28:18.314Z,46.95
2023-05-21T10:30:46.302Z,47.27
2023-05-21T10:33:16.417Z,47.56
2023-05-21T10:35:44.965Z,49.03
2023-05-21T10:38:11.971Z,46.64
2023-05-21T10:40:40.419Z,46.41
2023-05-21T10:43:32.210Z,47.37
2023-05-21T10:46:08.498Z,47.27
2023-05-21T10:48:46.482Z,45.86
2023-05-21T10:51:20.378Z,46.08
2023-05-21T10:53:56.007Z,45.60
2023-05-21T10:56:25.221Z,47.06
2023-05-21T10:59:00.909Z,44.62
2023-05-21T11:01:28.852Z,44.19
2023-05-21T11:03:56.069Z,44.41
2023-05-21T11:06:26.642Z,44.86
2023-05-21T11:08:55.291Z,47.10
2023-05-21T11:11:43.911Z,45.81
2023-05-21T11:14:26.779Z,45.08
2023-05-21T11:16:53.806Z,44.01
2023-05-21T11:19:20.609Z,43.43
2023-05-21T11:21:50.490Z,42.79
2023-05-21T11:24:20.676Z,45.03
2023-05-21T11:27:02.471Z,45.54
2023-05-21T11:29:42.723Z,44.71
2023-05-21T11:32:10.135Z,45.20
2023-05-21T11:34:39.376Z,43.20
2023-05-21T11:37:27.858Z,42.05
2023-05-21T11:39:55.564Z,44.23
2023-05-21T11:42:33.907Z,43.98
2023-05-21T11:45:01.842Z,44.45
2023-05-21T11:47:29.209Z,41.56
2023-05-21T11:49:57.189Z,43.12
2023-05-21T11:52:23.973Z,41.37
2023-05-21T11:54:54.068Z,42.49
2023-05-21T11:57:22.457Z,41.61
2023-05-21T11:59:53.713Z,41.28
2023-05-21T12:02:21.481Z,42.49
2023-05-21T12:04:48.662Z,41.67
2023-05-21T12:07:17.912Z,42.07
2023-05-21T12:09:45.482Z,41.60
2023-05-21T12:12:16.449Z,41.39
2023-05-21T12:14:43.881Z,40.53
2023-05-21T12:17:13.526Z,38.96
2023-05-21T12:19:41.159Z,38.69
2023-05-21T12:22:08.209Z,39.61
2023-05-21T12:24:35.661Z,40.85
2023-05-21T12:27:03.882Z,40.83
2023-05-21T12:29:31.503Z,39.15
2023-05-21T12:31:59.541Z,42.10
2023-05-21T12:34:41.248Z,39.43
2023-05-21T12:37:08.090Z,38.48
2023-05-21T12:39:37.835Z,38.55
2023-05-21T12:42:04.760Z,40.14
2023-05-21T12:44:31.747Z,39.82
2023-05-21T12:46:59.387Z,39.47
2023-05-21T12:49:36.415Z,42.05
2023-05-21T12:52:06.086Z,38.73
2023-05-21T12:54:33.190Z,38.44
2023-05-21T12:57:05.927Z,39.18
2023-05-21T12:59:39.607Z,40.53
2023-05-21T13:02:06.374Z,39.26
2023-05-21T13:04:36.215Z,40.53
2023-05-21T13:07:04.919Z,40.38
2023-05-21T13:09:33.198Z,38.41
2023-05-21T13:11:59.914Z,39.85
2023-05-21T13:14:26.645Z,38.88
2023-05-21T13:16:53.385Z,40.13
2023-05-21T13:19:20.075Z,40.75
2023-05-21T13:21:46.737Z,38.32
2023-05-21T13:24:13.827Z,40.90
2023-05-21T13:26:41.913Z,41.04
2023-05-21T13:29:08.648Z,38.29
2023-05-21T13:31:35.522Z,38.74
2023-05-21T13:34:03.682Z,38.16
2023-05-21T13:36:31.852Z,37.38
2023-05-21T13:38:58.577Z,37.52
2023-05-21T13:41:26.163Z,40.23
2023-05-21T13:43:54.392Z,39.11
2023-05-21T13:46:21.226Z,41.54
2023-05-21T13:48:48.004Z,38.80
2023-05-21T13:51:22.476Z,39.76
2023-05-21T13:53:57.748Z,39.29
2023-05-21T13:56:24.492Z,40.20
2023-05-21T13:58:51.191Z,38.48
2023-05-21T14:01:19.450Z,39.70
2023-05-21T14:03:46.217Z,39.85
2023-05-21T14:06:12.964Z,38.81
2023-05-21T14:08:39.710Z,36.70
2023-05-21T14:11:06.622Z,36.87
2023-05-21T14:13:33.710Z,39.33
2023-05-21T14:16:00.448Z,39.79
2023-05-21T14:18:28.549Z,40.21
2023-05-21T14:20:55.410Z,40.03
2023-05-21T14:23:22.162Z,39.81
2023-05-21T14:25:48.812Z,39.68
2023-05-21T14:28:15.654Z,40.05
2023-05-21T14:30:42.320Z,39.77
2023-05-21T14:33:09.095Z,40.92
2023-05-21T14:35:37.340Z,41.01
2023-05-21T14:38:04.399Z,39.27
2023-05-21T14:40:31.032Z,41.17
2023-05-21T14:42:57.944Z,39.63
2023-05-21T14:45:24.700Z,40.58
2023-05-21T14:47:51.578Z,37.97
2023-05-21T14:50:18.524Z,38.26
2023-05-21T14:52:46.751Z,37.83
2023-05-21T14:55:13.917Z,37.44
2023-05-21T14:57:40.783Z,38.14
2023-05-21T15:00:08.889Z,38.44
2023-05-21T15:02:35.713Z,37.78
2023-05-21T15:05:02.589Z,37.54
2023-05-21T15:07:29.310Z,37.67
2023-05-21T15:09:57.772Z,37.83
2023-05-21T15:12:24.509Z,37.94
2023-05-21T15:14:51.575Z,38.37
2023-05-21T15:17:18.264Z,37.05
2023-05-21T15:19:45.093Z,38.17
2023-05-21T15:22:11.813Z,39.17
2023-05-21T15:24:38.608Z,37.62
2023-05-21T15:27:06.791Z,38.28
2023-05-21T15:29:33.583Z,38.12
2023-05-21T15:32:05.046Z,38.46
2023-05-21T15:34:31.805Z,38.38
2023-05-21T15:36:58.587Z,38.88
2023-05-21T15:39:25.937Z,38.77
2023-05-21T15:41:54.021Z,38.52
2023-05-21T15:44:22.291Z,38.83
2023-05-21T15:46:50.055Z,39.91
2023-05-21T15:49:16.983Z,39.41
2023-05-21T15:51:44.393Z,39.73
2023-05-21T15:54:11.202Z,38.79
2023-05-21T15:56:37.959Z,38.49
2023-05-21T15:59:04.803Z,38.81
2023-05-21T16:01:33.470Z,37.90
2023-05-21T16:04:00.962Z,37.68
2023-05-21T16:06:27.921Z,37.21
2023-05-21T16:08:54.694Z,38.24
2023-05-21T16:11:21.556Z,38.30
2023-05-21T16:13:48.429Z,38.78
2023-05-21T16:16:15.287Z,36.21
2023-05-21T16:18:43.417Z,36.73
2023-05-21T16:21:10.227Z,37.39
2023-05-21T16:23:38.628Z,35.80
2023-05-21T16:26:05.499Z,36.78
2023-05-21T16:28:32.320Z,36.62
2023-05-21T16:30:59.122Z,36.14
2023-05-21T16:33:25.902Z,36.51
2023-05-21T16:35:54.488Z,36.88
2023-05-21T16:38:21.444Z,38.31
2023-05-21T16:40:48.947Z,37.66
2023-05-21T16:43:15.754Z,37.59
2023-05-21T16:45:44.028Z,37.70
2023-05-21T16:48:11.984Z,37.57
2023-05-21T16:50:39.084Z,37.30
2023-05-21T16:53:08.633Z,37.15
2023-05-21T16:55:36.450Z,37.35
2023-05-21T16:58:04.622Z,37.75
2023-05-21T17:00:31.354Z,38.38
2023-05-21T17:02:58.097Z,38.23
2023-05-21T17:05:26.193Z,38.69
2023-05-21T17:07:52.943Z,41.10
2023-05-21T17:10:21.133Z,40.73
2023-05-21T17:12:47.866Z,40.03
2023-05-21T17:15:14.532Z,41.04
2023-05-21T17:17:41.486Z,39.35
2023-05-21T17:20:08.831Z,38.77
2023-05-21T17:22:35.956Z,38.47
2023-05-21T17:25:03.097Z,39.55
2023-05-21T17:27:31.280Z,40.30
2023-05-21T17:29:57.948Z,41.12
2023-05-21T17:32:24.713Z,41.19
2023-05-21T17:34:53.069Z,41.43
2023-05-21T17:37:19.849Z,41.85
2023-05-21T17:39:46.648Z,42.30
2023-05-21T17:42:13.328Z,42.23
2023-05-21T17:44:41.416Z,43.16
2023-05-21T17:47:08.351Z,43.21
2023-05-21T17:49:35.228Z,43.79
2023-05-21T17:52:04.454Z,43.56
2023-05-21T17:54:34.042Z,43.35
2023-05-21T17:57:00.968Z,44.42
2023-05-21T17:59:27.785Z,44.38
2023-05-21T18:01:55.862Z,44.20
2023-05-21T18:04:22.664Z,45.01
2023-05-21T18:06:49.627Z,45.46
2023-05-21T18:09:16.326Z,45.15
2023-05-21T18:11:43.558Z,44.83
2023-05-21T18:14:10.534Z,44.85
2023-05-21T18:16:37.360Z,45.10
2023-05-21T18:19:06.663Z,45.50
2023-05-21T18:21:33.640Z,45.47
2023-05-21T18:24:00.387Z,45.60
2023-05-21T18:26:27.112Z,45.74
2023-05-21T18:28:53.904Z,45.76
2023-05-21T18:31:21.212Z,45.72
2023-05-21T18:33:50.456Z,45.45
2023-05-21T18:36:22.841Z,45.57
2023-05-21T18:38:52.302Z,46.20
2023-05-21T18:41:19.961Z,45.92
2023-05-21T18:43:46.834Z,46.33
2023-05-21T18:46:13.497Z,46.16
2023-05-21T18:48:42.983Z,46.78
2023-05-21T18:51:09.915Z,46.83
2023-05-21T18:53:39.237Z,47.55
2023-05-21T18:56:07.429Z,47.72
2023-05-21T18:58:34.296Z,48.24
2023-05-21T19:01:01.107Z,48.29
2023-05-21T19:03:28.059Z,48.63
2023-05-21T19:05:55.041Z,49.08
2023-05-21T19:08:21.798Z,49.19
2023-05-21T19:10:49.908Z,49.53
2023-05-21T19:13:16.571Z,49.36
2023-05-21T19:15:47.211Z,50.27
2023-05-21T19:18:14.363Z,50.13
2023-05-21T19:20:41.042Z,50.98
2023-05-21T19:23:08.244Z,51.06
2023-05-21T19:25:34.999Z,52.05
2023-05-21T19:28:03.105Z,53.35
2023-05-21T19:30:29.861Z,53.55
2023-05-21T19:32:56.943Z,54.55
2023-05-21T19:35:23.759Z,54.58
2023-05-21T19:37:50.611Z,55.19
2023-05-21T19:40:17.809Z,55.21
2023-05-21T19:42:44.901Z,54.37
2023-05-21T19:45:13.378Z,54.26
2023-05-21T19:47:41.161Z,55.31
2023-05-21T19:50:08.418Z,55.83
2023-05-21T19:52:35.663Z,56.02
2023-05-21T19:55:05.793Z,56.41
2023-05-21T19:57:32.694Z,60.02
2023-05-21T19:59:59.729Z,58.66
2023-05-21T20:02:28.831Z,59.34
2023-05-21T20:04:57.808Z,59.39
2023-05-21T20:07:24.548Z,60.86
2023-05-21T20:09:52.316Z,60.86
2023-05-21T20:12:21.896Z,61.23
2023-05-21T20:14:48.772Z,61.57
2023-05-21T20:17:18.826Z,64.60
2023-05-21T20:19:49.708Z,63.53
2023-05-21T20:22:16.593Z,63.23
2023-05-21T20:24:43.336Z,63.46
2023-05-21T20:27:10.208Z,63.94
2023-05-21T20:29:36.911Z,66.03
2023-05-21T20:32:03.882Z,66.57
2023-05-21T20:34:30.833Z,67.09
2023-05-21T20:36:59.003Z,67.04
2023-05-21T20:39:27.969Z,68.24
2023-05-21T20:41:55.104Z,68.78
2023-05-21T20:44:22.340Z,67.32
2023-05-21T20:46:49.214Z,66.46
2023-05-21T20:49:17.655Z,66.33
2023-05-21T20:51:44.509Z,66.64
2023-05-21T20:54:12.686Z,66.30
2023-05-21T20:56:42.540Z,66.48
2023-05-21T20:59:11.370Z,68.11
2023-05-21T21:01:38.573Z,68.92
2023-05-21T21:04:05.542Z,68.57
2023-05-21T21:06:32.335Z,67.98
2023-05-21T21:08:59.185Z,67.53
2023-05-21T21:11:27.305Z,67.03
2023-05-21T21:13:54.003Z,68.86
2023-05-21T21:16:20.800Z,70.68
2023-05-21T21:18:47.511Z,69.04
2023-05-21T21:21:14.241Z,70.35
2023-05-21T21:23:40.959Z,72.63
2023-05-21T21:26:07.661Z,70.74
2023-05-21T21:28:35.696Z,70.42
2023-05-21T21:31:02.682Z,71.81
2023-05-21T21:33:29.585Z,71.34
2023-05-21T21:35:56.470Z,70.45
2023-05-21T21:38:23.197Z,72.46
2023-05-21T21:40:49.835Z,74.18
2023-05-21T21:43:16.572Z,74.41
2023-05-21T21:45:44.733Z,72.45
2023-05-21T21:48:11.651Z,74.67
2023-05-21T21:50:38.658Z,75.57
2023-05-21T21:53:05.937Z,74.33
2023-05-21T21:55:33.107Z,72.27
2023-05-21T21:57:59.806Z,71.73
2023-05-21T22:00:26.892Z,71.98
2023-05-21T22:02:55.420Z,71.58
2023-05-21T22:05:22.235Z,71.62
2023-05-21T22:07:48.975Z,71.35
2023-05-21T22:10:16.286Z,71.33
2023-05-21T22:12:43.587Z,71.66
2023-05-21T22:15:17.906Z,71.75
2023-05-21T22:17:44.674Z,72.02
2023-05-21T22:20:12.930Z,71.10
2023-05-21T22:22:39.651Z,71.46
2023-05-21T22:25:06.530Z,72.08
2023-05-21T22:27:33.270Z,72.43
2023-05-21T22:30:00.630Z,71.88
2023-05-21T22:32:27.399Z,71.72
2023-05-21T22:34:54.058Z,72.51
2023-05-21T22:37:23.532Z,72.49
2023-05-21T22:39:50.253Z,75.83
2023-05-21T22:42:16.963Z,75.94
2023-05-21T22:44:43.683Z,75.30
2023-05-21T22:47:10.469Z,72.63
2023-05-21T22:49:38.360Z,73.47
2023-05-21T22:52:06.327Z,71.86
2023-05-21T22:54:34.447Z,71.43
2023-05-21T22:57:01.598Z,71.79
2023-05-21T22:59:28.527Z,72.43
2023-05-21T23:01:55.588Z,72.24
2023-05-21T23:04:35.768Z,71.69
2023-05-21T23:07:09.844Z,72.19
2023-05-21T23:09:37.889Z,72.99
2023-05-21T23:12:05.003Z,73.56
2023-05-21T23:14:31.814Z,74.37
2023-05-21T23:17:01.913Z,72.88
2023-05-21T23:19:29.432Z,72.66
2023-05-21T23:21:56.394Z,72.99
2023-05-21T23:24:23.219Z,75.21
2023-05-21T23:26:51.283Z,76.36
2023-05-21T23:29:18.396Z,74.89
2023-05-21T23:31:46.866Z,73.52
2023-05-21T23:34:13.792Z,72.97
2023-05-21T23:36:40.463Z,72.73
2023-05-21T23:39:07.224Z,72.66
2023-05-21T23:41:34.151Z,72.82
2023-05-21T23:44:02.342Z,73.54
2023-05-21T23:46:29.067Z,75.60
2023-05-21T23:48:55.823Z,76.16
2023-05-21T23:51:22.538Z,76.19
2023-05-21T23:53:49.410Z,74.19
2023-05-21T23:56:16.053Z,73.72
2023-05-21T23:58:42.781Z,73.52
